Time;durP1;ratioP1;P1;durP2;ratioP2;P2;SDS_P1;SDS_P2;PMS_P1;PMS_P2;Temp;Humidity;BMP_temperature;BMP_pressure;BME280_temperature;BME280_humidity;BME280_pressure;Samples;Min_cycle;Max_cycle;Signal;HPM_P1;HPM_P2
2024/02/21 00:01:21;;;;;;;;;;;;;;;21.16;27.54;98579.19;4985800;28;1138;-78
2024/02/21 00:03:47;;;;;;;;;;;;;;;21.32;27.59;98576.53;4968150;28;910;-78
2024/02/21 00:06:12;;;;;;;;;;;;;;;21.11;27.71;98582.50;4984456;28;1899;-77
2024/02/21 00:08:38;;;;;;;;;;;;;;;21.25;27.49;98579.44;5003968;28;938;-79
2024/02/21 00:11:03;;;;;;;;;;;;;;;21.01;27.51;98574.97;5007126;28;882;-79
2024/02/21 00:13:29;;;;;;;;;;;;;;;20.74;28.09;98570.09;4987532;28;1207;-78
2024/02/21 00:15:55;;;;;;;;;;;;;;;20.28;28.28;98568.66;4990075;28;919;-77
2024/02/21 00:18:20;;;;;;;;;;;;;;;20.73;27.74;98540.22;5004149;28;979;-78
2024/02/21 00:20:46;;;;;;;;;;;;;;;21.01;27.91;98574.97;5007388;28;922;-77
2024/02/21 00:23:11;;;;;;;;;;;;;;;21.02;27.78;98562.41;5005392;28;894;-77
2024/02/21 00:25:37;;;;;;;;;;;;;;;21.08;28.06;98566.34;5006439;28;1968;-78
2024/02/21 00:28:03;;;;;;;;;;;;;;;21.20;27.71;98568.59;5003497;28;1054;-78
2024/02/21 00:30:28;;;;;;;;;;;;;;;21.09;27.75;98559.50;5004711;28;1020;-77
2024/02/21 00:32:54;;;;;;;;;;;;;;;20.63;28.15;98558.16;4989532;28;1025;-77
2024/02/21 00:35:19;;;;;;;;;;;;;;;20.33;28.65;98560.94;5005235;28;915;-78
2024/02/21 00:37:45;;;;;;;;;;;;;;;21.11;27.94;98559.84;5005284;28;910;-78
2024/02/21 00:40:10;;;;;;;;;;;;;;;21.23;27.72;98562.06;4987977;28;923;-78
2024/02/21 00:42:36;;;;;;;;;;;;;;;21.26;27.68;98560.44;5005247;28;1188;-77
2024/02/21 00:45:01;;;;;;;;;;;;;;;21.21;27.46;98561.72;5005194;28;1965;-77
2024/02/21 00:47:27;;;;;;;;;;;;;;;21.15;27.52;98560.59;4989481;28;1063;-78
2024/02/21 00:49:53;;;;;;;;;;;;;;;21.40;27.32;98565.91;5004528;28;843;-78
2024/02/21 00:52:18;;;;;;;;;;;;;;;21.18;27.74;98565.38;5007734;28;867;-79
2024/02/21 00:54:44;;;;;;;;;;;;;;;20.89;28.10;98552.94;5004165;28;957;-78
2024/02/21 00:57:09;;;;;;;;;;;;;;;20.75;28.06;98553.94;5005126;28;1209;-77
2024/02/21 00:59:35;;;;;;;;;;;;;;;20.65;28.27;98555.69;5005167;28;961;-78
2024/02/21 01:02:00;;;;;;;;;;;;;;;21.00;28.08;98547.91;5008024;28;860;-78
2024/02/21 01:04:26;;;;;;;;;;;;;;;21.13;27.87;98551.72;5008310;28;1886;-78
2024/02/21 01:06:51;;;;;;;;;;;;;;;21.16;27.62;98545.22;5008744;28;771;-78
2024/02/21 01:09:17;;;;;;;;;;;;;;;21.07;27.69;98547.78;5008691;28;991;-78
2024/02/21 01:11:42;;;;;;;;;;;;;;;21.10;27.98;98546.94;5009037;28;1092;-77
2024/02/21 01:14:08;;;;;;;;;;;;;;;20.64;28.12;98542.78;5008468;28;919;-78
2024/02/21 01:16:33;;;;;;;;;;;;;;;20.45;28.58;98529.28;5009538;28;938;-77
2024/02/21 01:18:59;;;;;;;;;;;;;;;20.40;28.64;98535.41;5006229;28;871;-78
2024/02/21 01:21:24;;;;;;;;;;;;;;;21.07;27.78;98539.31;5008613;28;956;-77
2024/02/21 01:23:50;;;;;;;;;;;;;;;21.20;27.77;98533.84;5007197;28;1030;-78
2024/02/21 01:26:16;;;;;;;;;;;;;;;21.42;27.33;98537.16;4975701;28;1914;-78
2024/02/21 01:28:42;;;;;;;;;;;;;;;21.07;27.97;98536.47;4990693;28;1223;-78
2024/02/21 01:31:07;;;;;;;;;;;;;;;20.92;28.39;98535.09;5009733;28;907;-78
2024/02/21 01:33:34;;;;;;;;;;;;;;;21.10;27.70;98529.97;5006501;28;941;-78
2024/02/21 01:36:03;;;;;;;;;;;;;;;21.25;27.71;98528.50;5010737;28;916;-77
2024/02/21 01:38:29;;;;;;;;;;;;;;;20.86;27.97;98519.84;4957112;28;923;-78
2024/02/21 01:40:54;;;;;;;;;;;;;;;20.42;28.38;98522.47;5009555;28;1096;-77
2024/02/21 01:43:20;;;;;;;;;;;;;;;20.66;28.10;98514.88;5005589;28;940;-78
2024/02/21 01:45:52;;;;;;;;;;;;;;;21.08;28.09;98523.91;4971599;28;1898;-78
2024/02/21 01:48:18;;;;;;;;;;;;;;;21.27;27.71;98523.19;4969123;28;989;-78
2024/02/21 01:50:46;;;;;;;;;;;;;;;21.26;27.45;98524.44;4971271;28;1160;-78
2024/02/21 01:53:17;;;;;;;;;;;;;;;21.22;27.77;98525.72;4969765;28;1012;-78
2024/02/21 01:55:43;;;;;;;;;;;;;;;21.32;27.33;98536.88;4971734;28;949;-77
2024/02/21 01:58:09;;;;;;;;;;;;;;;21.28;27.67;98536.13;4970372;28;1046;-78
2024/02/21 02:00:34;;;;;;;;;;;;;;;21.36;27.47;98530.38;4986955;28;846;-77
2024/02/21 02:03:00;;;;;;;;;;;;;;;20.80;28.19;98523.16;4970304;28;1008;-77
2024/02/21 02:05:26;;;;;;;;;;;;;;;20.88;27.68;98529.50;4947820;29;1985;-78
2024/02/21 02:07:52;;;;;;;;;;;;;;;20.93;28.27;98531.03;4948439;29;1258;-78
2024/02/21 02:10:17;;;;;;;;;;;;;;;21.30;27.36;98533.69;4947759;29;976;-77
2024/02/21 02:12:43;;;;;;;;;;;;;;;21.27;27.81;98534.53;4947131;29;1069;-78
2024/02/21 02:15:09;;;;;;;;;;;;;;;21.21;27.58;98538.28;4947391;29;1115;-78
2024/02/21 02:17:34;;;;;;;;;;;;;;;21.18;27.71;98530.63;4981260;28;1032;-78
2024/02/21 02:20:00;;;;;;;;;;;;;;;21.08;27.76;98538.06;4969479;28;961;-78
2024/02/21 02:22:28;;;;;;;;;;;;;;;20.91;27.85;98539.16;4971527;28;1012;-78
2024/02/21 02:24:53;;;;;;;;;;;;;;;20.64;28.40;98531.47;4969326;28;1958;-78
2024/02/21 02:27:19;;;;;;;;;;;;;;;20.16;29.14;98540.13;4971383;28;919;-78
2024/02/21 02:29:44;;;;;;;;;;;;;;;21.11;27.70;98542.88;4968718;28;1216;-78
2024/02/21 02:32:10;;;;;;;;;;;;;;;20.97;27.95;98545.91;4971607;28;1004;-78
2024/02/21 02:34:35;;;;;;;;;;;;;;;21.07;27.82;98542.13;4969235;28;1001;-79
2024/02/21 02:37:01;;;;;;;;;;;;;;;21.17;27.58;98535.50;5003832;28;1042;-77
2024/02/21 02:39:26;;;;;;;;;;;;;;;21.21;27.81;98547.56;4933705;28;1268;-78
2024/02/21 02:41:52;;;;;;;;;;;;;;;21.17;27.40;98543.19;4951386;28;959;-77
2024/02/21 02:44:17;;;;;;;;;;;;;;;20.91;27.87;98533.50;4933509;28;1447;-78
2024/02/21 02:46:43;;;;;;;;;;;;;;;20.44;28.54;98536.16;4967463;28;1919;-78
2024/02/21 02:49:08;;;;;;;;;;;;;;;21.19;27.66;98538.72;4966114;28;1053;-78
2024/02/21 02:51:34;;;;;;;;;;;;;;;21.13;27.80;98543.25;4935298;28;1969;-78
2024/02/21 02:53:59;;;;;;;;;;;;;;;21.06;27.89;98540.53;4965696;28;926;-77
2024/02/21 02:56:25;;;;;;;;;;;;;;;21.03;28.17;98538.56;4967161;28;930;-78
2024/02/21 02:58:51;;;;;;;;;;;;;;;21.40;27.24;98539.59;4949578;29;963;-77
2024/02/21 03:01:16;;;;;;;;;;;;;;;21.22;27.85;98532.19;4929213;29;1178;-78
2024/02/21 03:03:42;;;;;;;;;;;;;;;21.20;27.50;98545.97;4926775;29;1158;-77
2024/02/21 03:06:07;;;;;;;;;;;;;;;20.72;28.04;98543.47;4931935;29;1899;-78
2024/02/21 03:08:34;;;;;;;;;;;;;;;20.63;28.30;98531.91;4945579;29;1020;-78
2024/02/21 03:10:59;;;;;;;;;;;;;;;20.29;28.79;98533.50;4976444;28;1041;-78
2024/02/21 03:13:25;;;;;;;;;;;;;;;21.09;28.08;98545.34;4967483;28;862;-77
2024/02/21 03:15:51;;;;;;;;;;;;;;;21.22;27.60;98543.50;4970429;28;935;-78
2024/02/21 03:18:16;;;;;;;;;;;;;;;21.09;27.78;98539.69;4968752;28;1399;-77
2024/02/21 03:20:42;;;;;;;;;;;;;;;21.13;27.87;98539.59;4954340;28;965;-78
2024/02/21 03:23:07;;;;;;;;;;;;;;;21.28;27.53;98541.78;4968162;28;962;-77
2024/02/21 03:25:33;;;;;;;;;;;;;;;20.69;28.15;98535.84;4968745;28;1910;-78
2024/02/21 03:27:58;;;;;;;;;;;;;;;20.81;28.04;98543.75;4936948;28;1148;-77
2024/02/21 03:30:24;;;;;;;;;;;;;;;21.02;27.91;98540.59;4953045;28;1117;-78
2024/02/21 03:32:49;;;;;;;;;;;;;;;20.96;28.03;98535.84;4999547;28;915;-78
2024/02/21 03:35:15;;;;;;;;;;;;;;;21.20;27.66;98551.63;4988325;28;943;-77
2024/02/21 03:37:40;;;;;;;;;;;;;;;21.12;27.68;98555.78;4999970;28;1007;-78
2024/02/21 03:40:07;;;;;;;;;;;;;;;21.16;27.83;98544.41;5005111;28;967;-78
2024/02/21 03:42:32;;;;;;;;;;;;;;;21.21;27.60;98547.56;4989724;28;1112;-78
2024/02/21 03:44:58;;;;;;;;;;;;;;;21.26;27.63;98552.72;5003956;28;1887;-78
2024/02/21 03:47:23;;;;;;;;;;;;;;;21.30;27.49;98550.69;4990365;28;1238;-78
2024/02/21 03:49:49;;;;;;;;;;;;;;;21.17;27.60;98541.16;5004241;28;1154;-78
2024/02/21 03:52:15;;;;;;;;;;;;;;;21.24;27.35;98543.88;5005565;28;867;-77
2024/02/21 03:54:40;;;;;;;;;;;;;;;20.82;28.11;98536.84;5005737;28;921;-77
2024/02/21 03:57:06;;;;;;;;;;;;;;;20.84;28.22;98527.97;5005662;28;904;-78
2024/02/21 03:59:31;;;;;;;;;;;;;;;21.18;27.55;98531.44;5005843;28;997;-78
2024/02/21 04:01:57;;;;;;;;;;;;;;;21.28;27.78;98536.13;5006009;28;915;-78
2024/02/21 04:04:23;;;;;;;;;;;;;;;21.23;27.60;98528.09;5005536;28;944;-78
2024/02/21 04:06:48;;;;;;;;;;;;;;;21.22;27.60;98526.53;4988946;28;1907;-77
2024/02/21 04:09:14;;;;;;;;;;;;;;;21.43;27.18;98524.59;4988026;28;945;-78
2024/02/21 04:11:39;;;;;;;;;;;;;;;21.23;27.55;98533.78;4989286;28;938;-78
2024/02/21 04:14:05;;;;;;;;;;;;;;;20.79;27.98;98532.84;4986895;28;940;-78
2024/02/21 04:16:30;;;;;;;;;;;;;;;21.15;27.24;98526.66;5004545;28;891;-78
2024/02/21 04:18:56;;;;;;;;;;;;;;;21.11;27.90;98525.91;4987039;28;1130;-77
2024/02/21 04:21:21;;;;;;;;;;;;;;;21.09;27.71;98528.38;4972290;28;1145;-78
2024/02/21 04:23:47;;;;;;;;;;;;;;;21.12;27.87;98526.69;5002867;28;1020;-78
2024/02/21 04:26:12;;;;;;;;;;;;;;;21.26;27.56;98537.78;4956140;28;1962;-78
2024/02/21 04:28:38;;;;;;;;;;;;;;;21.22;27.53;98537.84;4947963;29;1070;-77
2024/02/21 04:31:04;;;;;;;;;;;;;;;20.90;28.21;98537.56;4954008;29;1831;-78
2024/02/21 04:33:29;;;;;;;;;;;;;;;20.49;28.69;98530.06;4949083;29;1579;-78
2024/02/21 04:35:55;;;;;;;;;;;;;;;21.08;27.78;98532.41;4959015;29;1489;-79
2024/02/21 04:38:20;;;;;;;;;;;;;;;21.02;28.24;98534.13;4967072;29;984;-78
2024/02/21 04:40:46;;;;;;;;;;;;;;;21.14;27.81;98538.38;4969877;29;1005;-78
2024/02/21 04:43:11;;;;;;;;;;;;;;;21.22;27.91;98537.84;4968114;29;981;-77
2024/02/21 04:45:37;;;;;;;;;;;;;;;21.18;27.77;98542.75;4953364;29;1919;-77
2024/02/21 04:48:03;;;;;;;;;;;;;;;21.31;27.53;98535.28;4929590;29;1488;-79
2024/02/21 04:50:28;;;;;;;;;;;;;;;21.13;27.48;98540.41;4930601;29;1649;-77
2024/02/21 04:52:54;;;;;;;;;;;;;;;20.86;27.93;98537.59;4929667;29;919;-79
2024/02/21 04:55:19;;;;;;;;;;;;;;;20.45;28.72;98529.28;4929509;29;1007;-78
2024/02/21 04:57:45;;;;;;;;;;;;;;;21.13;27.79;98533.94;4930343;29;968;-78
2024/02/21 05:00:10;;;;;;;;;;;;;;;20.97;28.21;98537.44;4929317;29;1027;-78
2024/02/21 05:02:36;;;;;;;;;;;;;;;21.00;28.02;98530.94;4930345;29;1013;-78
2024/02/21 05:05:02;;;;;;;;;;;;;;;21.20;27.93;98540.31;4932139;29;1899;-78
2024/02/21 05:07:29;;;;;;;;;;;;;;;21.06;27.79;98532.03;4937209;28;1095;-78
2024/02/21 05:09:54;;;;;;;;;;;;;;;20.93;27.96;98536.69;4967286;28;962;-78
2024/02/21 05:12:20;;;;;;;;;;;;;;;20.93;27.90;98542.34;4937498;29;1258;-77
2024/02/21 05:14:45;;;;;;;;;;;;;;;21.16;27.62;98544.41;4935425;29;928;-77
2024/02/21 05:17:11;;;;;;;;;;;;;;;21.12;27.80;98544.47;4969023;28;961;-77
2024/02/21 05:19:36;;;;;;;;;;;;;;;21.06;27.90;98557.50;5005537;28;1538;-78
2024/02/21 05:22:02;;;;;;;;;;;;;;;21.29;27.61;98563.19;5009960;28;1466;-77
2024/02/21 05:24:29;;;;;;;;;;;;;;;21.20;27.92;98567.81;4989873;28;943;-78
2024/02/21 05:26:54;;;;;;;;;;;;;;;21.16;27.87;98567.84;5009901;28;1910;-78
2024/02/21 05:29:20;;;;;;;;;;;;;;;21.36;27.51;98570.81;5006502;28;1366;-77
2024/02/21 05:31:52;;;;;;;;;;;;;;;21.34;27.41;98561.94;5008312;28;1239;-78
2024/02/21 05:34:17;;;;;;;;;;;;;;;21.11;27.51;98571.16;5007622;28;922;-78
2024/02/21 05:36:43;;;;;;;;;;;;;;;20.76;28.00;98573.28;5008011;28;925;-78
2024/02/21 05:39:09;;;;;;;;;;;;;;;20.63;28.34;98575.13;4985663;28;1541;-77
2024/02/21 05:41:34;;;;;;;;;;;;;;;21.14;27.81;98576.00;4986350;28;1417;-77
2024/02/21 05:44:00;;;;;;;;;;;;;;;21.24;27.64;98579.84;4986146;28;916;-78
2024/02/21 05:46:25;;;;;;;;;;;;;;;21.17;28.02;98583.59;4971457;28;1903;-78
2024/02/21 05:48:51;;;;;;;;;;;;;;;21.05;27.91;98596.31;4985927;28;973;-78
2024/02/21 05:51:16;;;;;;;;;;;;;;;21.40;27.59;98594.19;4970770;28;912;-77
2024/02/21 05:53:42;;;;;;;;;;;;;;;21.21;27.65;98598.50;4969519;28;952;-77
2024/02/21 05:56:11;;;;;;;;;;;;;;;20.97;28.15;98599.69;4967066;28;1423;-77
2024/02/21 05:58:37;;;;;;;;;;;;;;;20.60;28.41;98604.22;4988353;28;944;-78
2024/02/21 06:01:03;;;;;;;;;;;;;;;20.28;29.15;98605.38;4974943;28;1332;-77
2024/02/21 06:03:29;;;;;;;;;;;;;;;21.18;27.85;98605.00;5003619;28;1084;-77
2024/02/21 06:05:54;;;;;;;;;;;;;;;21.05;27.97;98604.00;4990371;28;1883;-77
2024/02/21 06:08:20;;;;;;;;;;;;;;;20.88;28.34;98607.88;5004070;28;1642;-78
2024/02/21 06:10:45;;;;;;;;;;;;;;;20.97;28.22;98611.78;5007277;28;1310;-77
2024/02/21 06:13:11;;;;;;;;;;;;;;;21.14;27.81;98609.94;5021993;28;954;-77
2024/02/21 06:15:36;;;;;;;;;;;;;;;21.24;27.70;98614.66;5008535;28;1220;-77
2024/02/21 06:18:02;;;;;;;;;;;;;;;20.95;28.12;98610.63;5007482;28;1404;-77
2024/02/21 06:20:27;;;;;;;;;;;;;;;20.64;28.69;98610.63;4969596;28;1121;-78
2024/02/21 06:22:53;;;;;;;;;;;;;;;20.71;28.08;98607.69;4985741;28;968;-77
2024/02/21 06:25:19;;;;;;;;;;;;;;;21.31;27.73;98608.88;4953048;28;1884;-78
2024/02/21 06:27:44;;;;;;;;;;;;;;;21.25;27.58;98616.25;4969243;28;1422;-78
2024/02/21 06:30:10;;;;;;;;;;;;;;;21.11;27.89;98616.44;4969139;28;1207;-77
2024/02/21 06:32:35;;;;;;;;;;;;;;;21.30;27.55;98624.28;4954441;28;1006;-77
2024/02/21 06:35:04;;;;;;;;;;;;;;;21.20;28.06;98610.25;4952251;28;1515;-77
2024/02/21 06:37:30;;;;;;;;;;;;;;;21.31;27.84;98606.06;4970094;28;1276;-77
2024/02/21 06:39:55;;;;;;;;;;;;;;;20.71;28.31;98595.59;4953009;28;955;-77
2024/02/21 06:42:21;;;;;;;;;;;;;;;20.46;28.76;98598.72;4970357;28;925;-77
2024/02/21 06:44:47;;;;;;;;;;;;;;;20.13;29.10;98601.13;4984610;28;1977;-78
2024/02/21 06:47:12;;;;;;;;;;;;;;;20.92;28.17;98592.47;4928658;29;1316;-77
2024/02/21 06:49:38;;;;;;;;;;;;;;;21.26;27.60;98589.53;4911407;29;1284;-77
2024/02/21 06:52:06;;;;;;;;;;;;;;;21.32;27.45;98590.66;4940952;28;945;-78
2024/02/21 06:54:31;;;;;;;;;;;;;;;21.26;27.83;98589.53;4984211;28;1634;-76
2024/02/21 06:56:57;;;;;;;;;;;;;;;21.14;27.80;98590.13;4954091;28;1392;-78
2024/02/21 06:59:22;;;;;;;;;;;;;;;21.40;27.77;98593.38;4948394;29;935;-78
2024/02/21 07:01:48;;;;;;;;;;;;;;;21.10;27.80;98589.38;4966979;29;1029;-78
2024/02/21 07:04:14;;;;;;;;;;;;;;;20.84;28.30;98590.97;4949034;29;1391;-76
2024/02/21 07:06:40;;;;;;;;;;;;;;;20.54;28.32;98591.78;4950979;29;1963;-78
2024/02/21 07:09:05;;;;;;;;;;;;;;;21.06;28.21;98597.13;4949183;29;1192;-78
2024/02/21 07:11:31;;;;;;;;;;;;;;;20.96;28.01;98598.06;4966747;29;1040;-78
2024/02/21 07:13:56;;;;;;;;;;;;;;;21.05;28.06;98606.84;4926042;29;1622;-78
2024/02/21 07:16:22;;;;;;;;;;;;;;;21.19;28.00;98598.16;4912986;29;1228;-78
2024/02/21 07:18:47;;;;;;;;;;;;;;;21.35;27.48;98608.00;4911016;29;1190;-77
2024/02/21 07:21:13;;;;;;;;;;;;;;;21.36;27.53;98603.97;4928889;29;983;-78
2024/02/21 07:23:42;;;;;;;;;;;;;;;21.10;28.03;98608.41;4896526;29;1762;-77
2024/02/21 07:26:07;;;;;;;;;;;;;;;20.94;27.88;98612.66;4908747;29;1911;-77
2024/02/21 07:28:33;;;;;;;;;;;;;;;21.15;28.09;98611.53;4906964;29;1256;-78
2024/02/21 07:30:59;;;;;;;;;;;;;;;21.26;27.89;98609.34;4895900;29;911;-77
2024/02/21 07:33:24;;;;;;;;;;;;;;;21.43;27.35;98609.50;4887419;29;1406;-78
2024/02/21 07:35:50;;;;;;;;;;;;;;;21.36;27.80;98603.97;4890396;29;928;-76
2024/02/21 07:38:18;;;;;;;;;;;;;;;21.17;27.78;98614.72;4888368;29;1007;-77
2024/02/21 07:40:46;;;;;;;;;;;;;;;21.27;27.81;98613.78;4890485;29;935;-78
2024/02/21 07:43:12;;;;;;;;;;;;;;;21.02;28.22;98607.69;4887082;29;1377;-77
2024/02/21 07:45:39;;;;;;;;;;;;;;;20.32;29.22;98615.88;4911315;29;1884;-77
2024/02/21 07:48:05;;;;;;;;;;;;;;;20.60;28.58;98615.53;4910749;29;1138;-77
2024/02/21 07:50:30;;;;;;;;;;;;;;;20.88;28.33;98619.19;4911916;29;1077;-78
2024/02/21 07:52:56;;;;;;;;;;;;;;;20.91;28.19;98618.34;4911577;29;1030;-77
2024/02/21 07:55:21;;;;;;;;;;;;;;;21.28;28.03;98626.69;4923199;29;1785;-77
2024/02/21 07:57:47;;;;;;;;;;;;;;;21.24;28.09;98627.97;4978376;28;1901;-77
2024/02/21 08:00:19;;;;;;;;;;;;;;;21.19;28.04;98620.78;4927484;29;1774;-78
2024/02/21 08:02:45;;;;;;;;;;;;;;;21.36;27.55;98621.75;4943281;29;1892;-77
2024/02/21 08:05:12;;;;;;;;;;;;;;;21.20;27.79;98625.22;4908095;29;1995;-71
2024/02/21 08:07:38;;;;;;;;;;;;;;;20.86;28.26;98621.66;4938389;29;1976;-78
2024/02/21 08:10:04;;;;;;;;;;;;;;;20.95;27.95;98625.56;4945813;29;2250;-78
2024/02/21 08:12:29;;;;;;;;;;;;;;;20.26;29.28;98624.81;4950386;29;1911;-77
2024/02/21 08:14:55;;;;;;;;;;;;;;;21.20;27.75;98632.91;4930396;29;1914;-77
2024/02/21 08:17:21;;;;;;;;;;;;;;;21.19;28.19;98622.78;4933211;29;1655;-77
2024/02/21 08:19:47;;;;;;;;;;;;;;;21.18;27.92;98622.00;4962207;28;1013;-78
2024/02/21 08:22:13;;;;;;;;;;;;;;;21.24;27.77;98620.31;4955013;28;1019;-77
2024/02/21 08:24:38;;;;;;;;;;;;;;;21.22;27.86;98624.78;4953132;29;1015;-78
2024/02/21 08:27:04;;;;;;;;;;;;;;;21.45;27.49;98621.19;4971455;28;1544;-77
2024/02/21 08:29:30;;;;;;;;;;;;;;;21.12;28.10;98629.38;4989189;28;1054;-77
2024/02/21 08:31:55;;;;;;;;;;;;;;;20.26;29.04;98618.31;4979288;28;1716;-78
2024/02/21 08:34:21;;;;;;;;;;;;;;;20.70;28.87;98614.59;4989404;28;1291;-78
2024/02/21 08:36:46;;;;;;;;;;;;;;;21.06;28.11;98622.59;4976982;28;1088;-78
2024/02/21 08:39:16;;;;;;;;;;;;;;;21.65;27.11;98622.06;5009213;28;1333;-78
2024/02/21 08:41:41;;;;;;;;;;;;;;;21.40;27.58;98622.50;5012015;28;890;-77
2024/02/21 08:44:07;;;;;;;;;;;;;;;21.44;27.47;98611.91;5017158;28;1536;-78
2024/02/21 08:46:33;;;;;;;;;;;;;;;21.40;27.53;98621.69;4996649;28;1902;-78
2024/02/21 08:48:58;;;;;;;;;;;;;;;21.44;27.62;98622.44;5024382;28;1313;-78
2024/02/21 08:51:23;;;;;;;;;;;;;;;21.56;27.16;98613.34;4996757;28;1118;-78
2024/02/21 08:53:49;;;;;;;;;;;;;;;20.52;28.72;98622.50;5028532;28;955;-78
2024/02/21 08:56:15;;;;;;;;;;;;;;;20.69;28.63;98615.81;5031108;28;951;-78
2024/02/21 08:58:41;;;;;;;;;;;;;;;20.25;29.35;98619.56;5013837;28;1853;-77
2024/02/21 09:01:10;;;;;;;;;;;;;;;20.26;29.37;98619.16;5011293;28;1029;-78
2024/02/21 09:03:38;;;;;;;;;;;;;;;21.27;27.98;98619.44;5005981;28;1186;-78
2024/02/21 09:06:07;;;;;;;;;;;;;;;21.26;27.79;98617.03;5010387;28;1902;-78
2024/02/21 09:08:33;;;;;;;;;;;;;;;21.22;27.79;98616.28;5007392;28;1472;-78
2024/02/21 09:10:59;;;;;;;;;;;;;;;21.33;27.66;98619.78;5011235;28;853;-77
2024/02/21 09:13:25;;;;;;;;;;;;;;;21.18;27.95;98624.03;5007516;28;920;-77
2024/02/21 09:15:50;;;;;;;;;;;;;;;20.86;28.53;98608.31;5011375;28;983;-77
2024/02/21 09:18:18;;;;;;;;;;;;;;;20.66;28.66;98613.84;5007835;28;1415;-77
2024/02/21 09:20:44;;;;;;;;;;;;;;;20.89;28.59;98615.97;5011165;28;977;-78
2024/02/21 09:23:10;;;;;;;;;;;;;;;21.25;27.97;98621.91;5009352;28;958;-78
2024/02/21 09:25:36;;;;;;;;;;;;;;;21.38;27.79;98624.94;5014304;28;1914;-77
2024/02/21 09:28:02;;;;;;;;;;;;;;;21.22;27.78;98627.59;5002113;28;1568;-78
2024/02/21 09:30:27;;;;;;;;;;;;;;;21.14;28.17;98623.28;4988429;28;984;-77
2024/02/21 09:32:53;;;;;;;;;;;;;;;21.32;27.97;98624.63;4988044;28;1640;-78
2024/02/21 09:35:18;;;;;;;;;;;;;;;21.27;28.04;98619.44;4971550;28;1002;-78
2024/02/21 09:37:44;;;;;;;;;;;;;;;21.07;28.29;98624.19;4971048;28;1014;-78
2024/02/21 09:40:10;;;;;;;;;;;;;;;20.61;28.62;98619.16;4971430;28;1005;-77
2024/02/21 09:42:35;;;;;;;;;;;;;;;20.76;28.56;98621.38;4956684;28;1065;-78
2024/02/21 09:45:01;;;;;;;;;;;;;;;20.64;28.79;98619.13;4987309;28;1966;-78
2024/02/21 09:47:43;;;;;;;;;;;;;;;21.23;27.86;98624.34;4956159;28;1454;-77
2024/02/21 09:50:09;;;;;;;;;;;;;;;21.01;28.19;98623.06;4970946;28;1003;-77
2024/02/21 09:52:34;;;;;;;;;;;;;;;21.18;27.88;98618.38;4972129;28;1004;-78
2024/02/21 09:55:00;;;;;;;;;;;;;;;21.21;27.84;98623.19;4970529;28;988;-78
2024/02/21 09:57:26;;;;;;;;;;;;;;;21.10;28.30;98617.69;4970764;28;1475;-78
2024/02/21 09:59:51;;;;;;;;;;;;;;;21.10;27.98;98614.06;4985646;28;1476;-77
2024/02/21 10:02:17;;;;;;;;;;;;;;;21.19;27.99;98617.13;5003511;28;1295;-77
2024/02/21 10:04:43;;;;;;;;;;;;;;;20.37;28.84;98609.75;5012161;28;1906;-78
2024/02/21 10:07:09;;;;;;;;;;;;;;;20.34;29.21;98604.94;5028744;28;929;-76
2024/02/21 10:09:34;;;;;;;;;;;;;;;20.81;28.58;98603.94;5027200;28;937;-78
2024/02/21 10:12:10;;;;;;;;;;;;;;;21.08;28.22;98605.97;5029858;28;919;-77
2024/02/21 10:14:35;;;;;;;;;;;;;;;21.28;27.76;98597.59;5011074;28;1613;-78
2024/02/21 10:17:02;;;;;;;;;;;;;;;21.26;27.85;98600.06;5011772;28;1192;-78
2024/02/21 10:19:28;;;;;;;;;;;;;;;21.13;28.02;98594.16;5026933;28;912;-78
2024/02/21 10:22:01;;;;;;;;;;;;;;;21.19;28.01;98586.81;5028324;28;1062;-78
2024/02/21 10:24:27;;;;;;;;;;;;;;;21.34;27.88;98578.91;5005663;28;1446;-78
2024/02/21 10:27:08;;;;;;;;;;;;;;;21.24;27.79;98577.84;5008398;28;1973;-78
2024/02/21 10:29:33;;;;;;;;;;;;;;;20.80;28.61;98579.72;4990865;28;1068;-77
2024/02/21 10:32:06;;;;;;;;;;;;;;;20.60;28.79;98575.16;4992365;28;853;-78
2024/02/21 10:34:32;;;;;;;;;;;;;;;21.01;28.44;98580.63;5009044;28;1337;-77
2024/02/21 10:37:01;;;;;;;;;;;;;;;21.39;27.53;98569.13;4992407;28;1217;-78
2024/02/21 10:39:27;;;;;;;;;;;;;;;21.17;27.86;98568.66;4986249;28;1074;-78
2024/02/21 10:41:53;;;;;;;;;;;;;;;21.17;28.07;98565.81;4987345;28;1014;-78
2024/02/21 10:44:18;;;;;;;;;;;;;;;21.23;27.76;98562.06;4969263;28;1370;-78
2024/02/21 10:46:44;;;;;;;;;;;;;;;21.27;27.83;98568.47;4968943;28;1914;-77
2024/02/21 10:49:15;;;;;;;;;;;;;;;21.15;27.81;98552.13;4966726;29;984;-78
2024/02/21 10:51:43;;;;;;;;;;;;;;;21.08;27.98;98557.88;4948577;29;1066;-77
2024/02/21 10:54:13;;;;;;;;;;;;;;;21.13;28.18;98550.94;4946905;29;1397;-77
2024/02/21 10:56:39;;;;;;;;;;;;;;;21.07;28.01;98554.25;4949300;29;1036;-78
2024/02/21 10:59:05;;;;;;;;;;;;;;;21.14;28.08;98553.34;4947093;29;937;-77
2024/02/21 11:01:31;;;;;;;;;;;;;;;21.08;28.11;98555.03;4948654;29;918;-78
2024/02/21 11:03:58;;;;;;;;;;;;;;;21.14;28.01;98547.69;4946898;29;1558;-77
2024/02/21 11:06:23;;;;;;;;;;;;;;;21.20;27.77;98551.63;4929266;29;1956;-77
2024/02/21 11:09:02;;;;;;;;;;;;;;;21.03;27.91;98545.00;4927911;29;951;-78
2024/02/21 11:11:28;;;;;;;;;;;;;;;21.06;27.47;98541.34;4913544;29;1088;-78
2024/02/21 11:14:05;;;;;;;;;;;;;;;20.99;28.35;98535.78;4924173;29;1408;-78
2024/02/21 11:16:34;;;;;;;;;;;;;;;21.22;27.73;98537.84;4932633;29;1057;-77
2024/02/21 11:19:29;;;;;;;;;;;;;;;21.24;27.97;98531.75;4908255;29;998;-78
2024/02/21 11:21:55;;;;;;;;;;;;;;;21.18;28.00;98537.09;4817837;29;1001;-78
2024/02/21 11:24:33;;;;;;;;;;;;;;;21.35;27.74;98540.06;4786242;29;1618;-78
2024/02/21 11:27:17;;;;;;;;;;;;;;;21.28;27.87;98541.78;4803233;29;1958;-78
2024/02/21 11:29:46;;;;;;;;;;;;;;;20.71;28.21;98541.88;4828571;29;1478;-78
2024/02/21 11:32:14;;;;;;;;;;;;;;;20.61;28.54;98540.78;4839258;29;1045;-78
2024/02/21 11:34:42;;;;;;;;;;;;;;;20.85;28.23;98541.66;4836881;29;1524;-77
2024/02/21 11:37:15;;;;;;;;;;;;;;;21.04;28.05;98538.13;4854114;29;1046;-78
2024/02/21 11:39:41;;;;;;;;;;;;;;;21.20;28.08;98526.16;4837246;29;980;-78
2024/02/21 11:42:10;;;;;;;;;;;;;;;21.17;27.81;98524.19;4839495;29;986;-77
2024/02/21 11:44:39;;;;;;;;;;;;;;;21.30;27.55;98522.38;4867685;29;1495;-78
2024/02/21 11:47:05;;;;;;;;;;;;;;;21.30;27.50;98522.38;4858304;29;1897;-78
2024/02/21 11:49:31;;;;;;;;;;;;;;;21.03;27.93;98513.88;4855699;29;984;-78
2024/02/21 11:52:04;;;;;;;;;;;;;;;20.11;29.04;98510.34;4838458;29;1056;-77
2024/02/21 11:54:32;;;;;;;;;;;;;;;20.75;28.51;98512.31;4831241;29;1390;-78
2024/02/21 11:56:58;;;;;;;;;;;;;;;21.12;27.77;98510.50;4860454;29;1405;-78
2024/02/21 11:59:23;;;;;;;;;;;;;;;21.20;27.65;98517.66;4925771;29;1079;-77
2024/02/21 12:01:49;;;;;;;;;;;;;;;21.32;27.56;98508.59;4928447;29;1273;-78
2024/02/21 12:04:19;;;;;;;;;;;;;;;21.19;27.92;98516.06;4927455;29;1009;-77
2024/02/21 12:06:45;;;;;;;;;;;;;;;21.36;27.60;98507.72;4908726;29;1915;-77
2024/02/21 12:09:13;;;;;;;;;;;;;;;20.95;28.24;98505.97;4926528;29;1141;-78
2024/02/21 12:11:39;;;;;;;;;;;;;;;20.64;28.31;98508.84;4913322;29;978;-78
2024/02/21 12:14:05;;;;;;;;;;;;;;;20.60;28.32;98496.78;4926841;29;928;-77
2024/02/21 12:16:31;;;;;;;;;;;;;;;20.70;28.26;98501.47;4932105;29;1468;-77
2024/02/21 12:18:56;;;;;;;;;;;;;;;20.99;28.32;98501.06;4914361;29;1367;-77
2024/02/21 12:21:32;;;;;;;;;;;;;;;21.32;27.42;98496.47;4932208;29;943;-78
2024/02/21 12:23:58;;;;;;;;;;;;;;;21.16;27.86;98491.47;4948075;29;1095;-78
2024/02/21 12:26:24;;;;;;;;;;;;;;;21.19;27.72;98498.28;4978265;28;1958;-78
2024/02/21 12:28:49;;;;;;;;;;;;;;;21.06;27.93;98500.91;4952504;28;1004;-77
2024/02/21 12:31:16;;;;;;;;;;;;;;;20.79;28.16;98493.25;4970172;28;978;-77
2024/02/21 12:33:42;;;;;;;;;;;;;;;20.56;28.51;98490.38;4968460;28;1218;-78
2024/02/21 12:36:08;;;;;;;;;;;;;;;21.05;28.12;98493.66;4953763;28;1400;-77
2024/02/21 12:38:34;;;;;;;;;;;;;;;21.07;27.84;98485.53;4952196;28;1219;-78
2024/02/21 12:41:00;;;;;;;;;;;;;;;21.04;27.85;98492.88;4987043;28;1124;-76
2024/02/21 12:43:26;;;;;;;;;;;;;;;20.96;28.34;98496.25;4951375;28;1038;-77
2024/02/21 12:45:52;;;;;;;;;;;;;;;21.24;27.71;98486.47;4977361;28;1914;-77
2024/02/21 12:48:17;;;;;;;;;;;;;;;21.40;27.62;98497.13;4933268;28;1340;-77
2024/02/21 12:50:47;;;;;;;;;;;;;;;20.64;28.22;98483.41;4951836;29;1272;-77
2024/02/21 12:53:15;;;;;;;;;;;;;;;20.73;28.41;98489.31;4964904;28;1007;-77
2024/02/21 12:55:40;;;;;;;;;;;;;;;20.68;28.33;98481.31;4931091;29;957;-78